Time;durP1;ratioP1;P1;durP2;ratioP2;P2;SDS_P1;SDS_P2;PMS_P1;PMS_P2;Temp;Humidity;BMP_temperature;BMP_pressure;BME280_temperature;BME280_humidity;BME280_pressure;Samples;Min_cycle;Max_cycle;Signal;HPM_P1;HPM_P2
2022/06/20 00:00:09;;;;;;;63.05;50.28;;;22.00;63.10;;;;;;4945079;28;91131;-76
2022/06/20 00:02:41;;;;;;;64.75;50.03;;;22.00;63.20;;;;;;4934935;28;90819;-77
2022/06/20 00:05:07;;;;;;;63.88;50.22;;;22.00;63.00;;;;;;4938788;28;94915;-76
2022/06/20 00:07:32;;;;;;;63.13;50.05;;;22.00;63.20;;;;;;4944821;28;90275;-76
2022/06/20 00:09:58;;;;;;;64.13;50.30;;;22.00;63.20;;;;;;4944324;28;90080;-76
2022/06/20 00:12:26;;;;;;;63.10;50.15;;;22.00;63.30;;;;;;4949315;28;90456;-76
2022/06/20 00:14:55;;;;;;;63.38;50.13;;;22.00;63.40;;;;;;4942737;28;90994;-76
2022/06/20 00:17:21;;;;;;;64.30;50.33;;;22.00;63.30;;;;;;4930068;28;93917;-76
2022/06/20 00:19:46;;;;;;;63.83;50.38;;;22.00;63.00;;;;;;4932997;28;90319;-76
2022/06/20 00:22:12;;;;;;;64.10;50.35;;;22.00;63.10;;;;;;4947276;28;95415;-76
2022/06/20 00:24:38;;;;;;;63.95;50.05;;;22.00;63.10;;;;;;4939348;28;90247;-76
2022/06/20 00:27:06;;;;;;;62.85;50.22;;;22.00;63.10;;;;;;4933147;28;92756;-76
2022/06/20 00:29:37;;;;;;;65.20;50.13;;;22.00;63.10;;;;;;4925798;28;90481;-76
2022/06/20 00:32:04;;;;;;;62.85;50.03;;;22.00;63.10;;;;;;4948263;28;89186;-76
2022/06/20 00:34:30;;;;;;;65.15;50.25;;;22.00;63.10;;;;;;4937450;28;92659;-76
2022/06/20 00:36:56;;;;;;;63.70;50.35;;;22.00;63.30;;;;;;4941495;28;92234;-76
2022/06/20 00:39:22;;;;;;;63.22;50.05;;;21.90;63.20;;;;;;4933954;28;90758;-76
2022/06/20 00:41:49;;;;;;;65.43;50.38;;;22.00;63.30;;;;;;4952760;28;90051;-76
2022/06/20 00:44:21;;;;;;;63.97;50.25;;;22.00;63.30;;;;;;4934302;28;92025;-76
2022/06/20 00:46:56;;;;;;;64.05;50.15;;;22.00;63.40;;;;;;4934301;28;90366;-76
2022/06/20 00:49:27;;;;;;;64.22;50.05;;;22.00;64.10;;;;;;4925145;28;92175;-76
2022/06/20 00:51:58;;;;;;;;;;;21.90;63.30;;;;;;4950047;28;91109;-77
2022/06/20 00:54:36;;;;;;;64.65;50.20;;;21.90;63.10;;;;;;4934772;28;91188;-76
2022/06/20 00:57:18;;;;;;;64.80;50.08;;;21.90;63.40;;;;;;4947114;28;91133;-76
2022/06/20 00:59:49;;;;;;;63.40;49.92;;;21.90;63.20;;;;;;4948220;28;93646;-76
2022/06/20 01:02:34;;;;;;;63.78;50.03;;;21.90;63.30;;;;;;4955522;28;91124;-76
2022/06/20 01:05:03;;;;;;;63.03;49.85;;;21.90;63.40;;;;;;4910381;28;93892;-76
2022/06/20 01:07:36;;;;;;;64.40;50.22;;;21.90;63.40;;;;;;4950205;28;95667;-76
2022/06/20 01:10:05;;;;;;;63.63;50.05;;;21.90;63.20;;;;;;4929144;28;89822;-76
2022/06/20 01:12:39;;;;;;;63.40;50.35;;;21.90;63.40;;;;;;4947525;28;89582;-76
2022/06/20 01:15:39;;;;;;;64.30;50.15;;;21.90;63.30;;;;;;4936417;28;91425;-76
2022/06/20 01:18:10;;;;;;;63.33;50.13;;;21.90;63.20;;;;;;4944704;28;91425;-76
2022/06/20 01:20:37;;;;;;;63.80;50.17;;;21.90;63.20;;;;;;4936604;28;91424;-76
2022/06/20 01:23:28;;;;;;;62.67;49.88;;;21.90;63.10;;;;;;4950619;28;88828;-76
2022/06/20 01:26:16;;;;;;;62.50;49.83;;;21.90;63.30;;;;;;4923732;28;91695;-76
2022/06/20 01:28:45;;;;;;;63.38;49.88;;;21.90;63.00;;;;;;4948456;28;91068;-77
2022/06/20 01:31:13;;;;;;;64.25;49.95;;;21.80;63.20;;;;;;4948416;28;91426;-76
2022/06/20 01:33:38;;;;;;;62.92;50.05;;;21.80;63.40;;;;;;4949103;28;90644;-76
2022/06/20 01:38:49;;;;;;;64.88;50.15;;;21.80;63.40;;;;;;4947214;28;90331;-76
2022/06/20 01:44:03;;;;;;;63.25;50.00;;;21.80;63.30;;;;;;4948320;28;90527;-76
2022/06/20 01:46:31;;;;;;;62.83;50.03;;;21.80;63.50;;;;;;4909086;28;96488;-76
2022/06/20 01:49:12;;;;;;;62.75;49.90;;;21.80;63.40;;;;;;4941315;28;90646;-76
2022/06/20 01:51:38;;;;;;;62.08;49.78;;;21.80;63.30;;;;;;4940097;28;90686;-77
2022/06/20 01:54:03;;;;;;;64.43;49.92;;;21.80;63.30;;;;;;4935088;28;90118;-76
2022/06/20 01:56:29;;;;;;;62.85;49.85;;;21.80;63.10;;;;;;4945158;28;91051;-76
2022/06/20 01:59:03;;;;;;;62.40;49.78;;;21.80;63.30;;;;;;4934083;28;93086;-76
2022/06/20 02:01:31;;;;;;;62.15;49.83;;;21.80;63.40;;;;;;4938603;28;89985;-76
2022/06/20 02:03:57;;;;;;;62.38;49.97;;;21.80;63.20;;;;;;4949085;28;89870;-77
2022/06/20 02:06:23;;;;;;;63.55;50.20;;;21.80;63.20;;;;;;4944872;28;91348;-77
2022/06/20 02:08:54;;;;;;;63.55;50.22;;;21.70;63.40;;;;;;4947753;28;94404;-77
2022/06/20 02:11:31;;;;;;;63.65;49.83;;;21.70;63.30;;;;;;4947101;28;93760;-76
2022/06/20 02:14:32;;;;;;;62.60;49.83;;;21.80;63.40;;;;;;4947302;28;88984;-77
2022/06/20 02:17:11;;;;;;;62.80;49.58;;;21.70;63.20;;;;;;4921917;28;92219;-76
2022/06/20 02:19:43;;;;;;;63.78;50.13;;;21.70;63.20;;;;;;4943056;28;90030;-76
2022/06/20 02:22:11;;;;;;;63.10;49.80;;;21.70;63.10;;;;;;4944833;28;91045;-76
2022/06/20 02:24:41;;;;;;;63.72;50.03;;;21.70;63.20;;;;;;4919681;28;92225;-76
2022/06/20 02:27:21;;;;;;;64.07;49.72;;;21.70;63.10;;;;;;4924315;28;93287;-76
2022/06/20 02:29:46;;;;;;;62.90;49.85;;;21.70;63.40;;;;;;4935989;28;94669;-76
2022/06/20 02:32:17;;;;;;;64.25;49.88;;;21.60;63.20;;;;;;4936585;28;89407;-76
2022/06/20 02:34:49;;;;;;;62.60;49.67;;;21.60;63.40;;;;;;4947959;28;91991;-76
2022/06/20 02:37:24;;;;;;;62.45;49.72;;;21.70;63.40;;;;;;4950833;28;91358;-76
2022/06/20 02:39:57;;;;;;;63.03;49.85;;;21.60;63.40;;;;;;4943440;28;90025;-77
2022/06/20 02:42:51;;;;;;;62.92;49.83;;;21.60;63.20;;;;;;4945366;28;89375;-77
2022/06/20 02:45:21;;;;;;;63.72;49.92;;;21.70;63.10;;;;;;4935066;28;89750;-76
2022/06/20 02:47:55;;;;;;;63.08;49.85;;;21.60;63.40;;;;;;4932439;28;91987;-76
2022/06/20 02:50:28;;;;;;;63.22;49.75;;;21.60;63.40;;;;;;4931090;28;92298;-77
2022/06/20 02:53:02;;;;;;;62.88;49.78;;;21.60;63.40;;;;;;4949008;28;89702;-76
2022/06/20 02:55:30;;;;;;;63.22;49.50;;;21.70;63.30;;;;;;4942204;28;91662;-76
2022/06/20 02:57:58;;;;;;;62.83;49.63;;;21.60;63.20;;;;;;4945386;28;91642;-76
2022/06/20 03:00:58;;;;;;;62.75;49.67;;;21.60;63.10;;;;;;4941326;28;92359;-76
2022/06/20 03:03:37;;;;;;;61.80;49.42;;;21.60;63.20;;;;;;4947897;28;91235;-76
2022/06/20 03:06:06;;;;;;;62.70;49.78;;;21.60;63.50;;;;;;4928757;28;89422;-77
2022/06/20 03:08:32;;;;;;;62.35;49.72;;;21.60;63.40;;;;;;4947138;28;90091;-76
2022/06/20 03:11:03;;;;;;;61.90;49.25;;;21.60;63.40;;;;;;4944792;28;93944;-76
2022/06/20 03:13:30;;;;;;;62.85;49.83;;;21.60;63.40;;;;;;4946342;28;91199;-77
2022/06/20 03:15:56;;;;;;;62.65;49.80;;;21.60;63.10;;;;;;4932231;28;90942;-76
2022/06/20 03:18:23;;;;;;;63.15;49.83;;;21.60;63.30;;;;;;4951584;28;93565;-77
2022/06/20 03:20:49;;;;;;;61.92;49.92;;;21.60;63.40;;;;;;4944730;28;95640;-77
2022/06/20 03:23:26;;;;;;;63.92;50.13;;;21.60;63.20;;;;;;4942913;28;91765;-77
2022/06/20 03:25:55;;;;;;;61.70;49.60;;;21.60;63.20;;;;;;4941288;28;90484;-77
2022/06/20 03:28:22;;;;;;;62.42;49.95;;;21.60;63.20;;;;;;4947397;28;91389;-76
2022/06/20 03:30:49;;;;;;;61.78;49.80;;;21.60;63.20;;;;;;4922002;28;92207;-77
2022/06/20 03:33:21;;;;;;;62.75;49.72;;;21.60;63.50;;;;;;4951479;28;90254;-77
2022/06/20 03:36:13;;;;;;;61.83;49.65;;;21.60;63.30;;;;;;4947421;28;89525;-76
2022/06/20 03:38:41;;;;;;;62.15;49.47;;;21.60;63.50;;;;;;4950213;28;90636;-76
2022/06/20 03:41:09;;;;;;;62.72;49.67;;;21.60;63.40;;;;;;4934837;28;91275;-76
2022/06/20 03:43:36;;;;;;;62.10;49.53;;;21.60;63.50;;;;;;4945469;28;91103;-76
2022/06/20 03:46:07;;;;;;;63.72;49.88;;;21.60;63.50;;;;;;4937595;28;89856;-76
2022/06/20 03:48:37;;;;;;;62.13;49.40;;;21.60;63.40;;;;;;4939471;28;90233;-76
2022/06/20 03:51:10;;;;;;;62.97;49.65;;;21.60;63.40;;;;;;4944560;28;90133;-76
2022/06/20 03:53:43;;;;;;;63.60;49.95;;;21.60;63.20;;;;;;4921881;28;91151;-77
2022/06/20 03:56:14;;;;;;;63.92;49.92;;;21.60;63.20;;;;;;4927961;28;94576;-76
2022/06/20 03:58:56;;;;;;;62.50;49.83;;;21.60;63.20;;;;;;4946217;28;89959;-77
2022/06/20 04:01:28;;;;;;;;;;;21.60;63.10;;;;;;4933747;28;93711;-75
2022/06/20 04:04:03;;;;;;;61.63;49.42;;;21.50;63.10;;;;;;4939632;28;91948;-77
2022/06/20 04:06:34;;;;;;;62.72;49.65;;;21.50;64.10;;;;;;4934907;28;93639;-77
2022/06/20 04:12:30;;;;;;;62.30;49.53;;;21.50;63.60;;;;;;4946401;28;92714;-76
2022/06/20 04:15:09;;;;;;;62.20;49.60;;;21.50;63.50;;;;;;4951102;28;90219;-77
2022/06/20 04:20:50;;;;;;;62.63;49.35;;;21.60;63.70;;;;;;4943154;28;92134;-74
2022/06/20 04:23:23;;;;;;;64.35;49.85;;;21.60;63.70;;;;;;4927996;28;91282;-76
2022/06/20 04:26:00;;;;;;;63.30;49.65;;;21.60;63.70;;;;;;4938836;28;90036;-76
2022/06/20 04:28:40;;;;;;;62.28;49.60;;;21.50;63.70;;;;;;4950715;28;91051;-76
2022/06/20 04:31:08;;;;;;;62.50;49.75;;;21.60;63.60;;;;;;4950022;28;91984;-76
2022/06/20 04:33:53;;;;;;;64.72;49.88;;;21.60;63.50;;;;;;4947783;28;98473;-76
2022/06/20 04:36:29;;;;;;;63.15;49.97;;;21.60;63.50;;;;;;4959162;28;90489;-76
2022/06/20 04:39:22;;;;;;;63.25;49.78;;;21.50;63.60;;;;;;4962226;28;89475;-75
2022/06/20 04:42:06;;;;;;;63.35;50.15;;;21.50;63.40;;;;;;4942723;28;90455;-75
2022/06/20 04:44:43;;;;;;;63.97;49.92;;;21.50;63.40;;;;;;4957686;28;89928;-77
2022/06/20 04:47:56;;;;;;;68.65;49.95;;;21.50;63.60;;;;;;4939263;28;90474;-77
2022/06/20 04:50:29;;;;;;;63.55;49.88;;;21.50;63.00;;;;;;4876709;28;90404;-74
2022/06/20 04:53:05;;;;;;;64.43;49.97;;;21.50;63.50;;;;;;4855825;28;91717;-74
2022/06/20 04:55:33;;;;;;;63.45;49.95;;;21.50;63.40;;;;;;4923645;28;91570;-74
2022/06/20 04:58:04;;;;;;;63.40;49.90;;;21.50;63.30;;;;;;4929112;28;92905;-76
2022/06/20 05:00:51;;;;;;;63.00;49.95;;;21.50;63.30;;;;;;4932848;28;90989;-75
2022/06/20 05:03:25;;;;;;;63.92;49.83;;;21.50;63.10;;;;;;4951638;28;89940;-75
2022/06/20 05:05:55;;;;;;;66.22;50.42;;;21.50;63.20;;;;;;4960125;28;90415;-76
2022/06/20 05:08:28;;;;;;;62.92;50.28;;;21.50;63.10;;;;;;4922929;28;90051;-75
2022/06/20 05:11:11;;;;;;;64.63;50.10;;;21.50;63.20;;;;;;4944352;28;90455;-72
2022/06/20 05:13:40;;;;;;;64.47;50.05;;;21.40;63.00;;;;;;4927200;28;92296;-76
2022/06/20 05:16:21;;;;;;;64.30;50.17;;;21.40;63.30;;;;;;4948889;28;90260;-76
2022/06/20 05:18:54;;;;;;;64.22;50.17;;;21.50;63.40;;;;;;4936345;28;91797;-76
2022/06/20 05:21:33;;;;;;;66.85;50.28;;;21.50;63.40;;;;;;4945626;28;90109;-73
2022/06/20 05:24:07;;;;;;;63.55;50.17;;;21.40;63.40;;;;;;4925498;28;91475;-74
2022/06/20 05:26:39;;;;;;;62.88;50.10;;;21.50;63.50;;;;;;4960010;28;92333;-74
2022/06/20 05:29:13;;;;;;;67.63;50.33;;;21.50;63.50;;;;;;4947068;28;89727;-75
2022/06/20 05:31:42;;;;;;;66.63;50.45;;;21.50;63.50;;;;;;4953830;28;90921;-75
2022/06/20 05:34:17;;;;;;;65.95;50.88;;;21.50;63.40;;;;;;4949834;28;91485;-75
2022/06/20 05:37:03;;;;;;;67.95;50.25;;;21.50;63.60;;;;;;4951754;28;96923;-75
2022/06/20 05:39:34;;;;;;;68.22;50.78;;;21.50;63.70;;;;;;4913154;28;91240;-75
2022/06/20 05:42:01;;;;;;;69.53;50.75;;;21.50;63.70;;;;;;4949815;28;89954;-74
2022/06/20 05:44:27;;;;;;;72.18;51.33;;;21.50;63.40;;;;;;4930826;28;90482;-75
2022/06/20 05:47:12;;;;;;;68.10;51.05;;;21.60;63.60;;;;;;4939610;28;95020;-76
2022/06/20 05:49:51;;;;;;;68.03;51.08;;;21.50;63.80;;;;;;4944581;28;90657;-76
2022/06/20 05:52:21;;;;;;;68.30;51.33;;;21.50;63.80;;;;;;4954003;28;91993;-76
2022/06/20 05:54:57;;;;;;;70.32;51.75;;;21.50;64.20;;;;;;4942512;28;90518;-76
2022/06/20 05:57:26;;;;;;;69.07;51.38;;;21.50;64.00;;;;;;4947438;28;90910;-77
2022/06/20 05:59:54;;;;;;;70.28;51.95;;;21.50;64.40;;;;;;4938174;28;89942;-74
2022/06/20 06:02:28;;;;;;;73.38;51.90;;;21.60;64.30;;;;;;4941776;28;89947;-77
2022/06/20 06:05:03;;;;;;;68.40;51.53;;;21.70;63.60;;;;;;4939238;28;93378;-76
2022/06/20 06:07:38;;;;;;;69.05;51.28;;;21.90;63.00;;;;;;4965712;28;89614;-77
2022/06/20 06:10:19;;;;;;;70.90;51.03;;;22.10;62.00;;;;;;4954291;28;89818;-76
2022/06/20 06:12:52;;;;;;;67.43;51.78;;;22.00;60.90;;;;;;4949979;28;90064;-77
2022/06/20 06:16:46;;;;;;;67.28;50.75;;;22.00;60.70;;;;;;4938852;28;92051;-78
2022/06/20 06:18:32;;;;;;;69.50;50.95;;;21.90;60.70;;;;;;4946858;28;90972;-77
2022/06/20 06:20:58;;;;;;;67.72;50.92;;;21.80;60.80;;;;;;4941514;28;93543;-77
2022/06/20 06:23:24;;;;;;;66.35;50.83;;;21.70;60.90;;;;;;4948252;28;90718;-78
2022/06/20 06:25:50;;;;;;;66.20;50.72;;;21.70;61.10;;;;;;4950698;28;91284;-78
2022/06/20 06:28:23;;;;;;;68.97;50.85;;;21.70;61.10;;;;;;4931293;28;90605;-77
2022/06/20 06:30:52;;;;;;;68.05;50.60;;;21.70;61.00;;;;;;4951476;28;89830;-78
2022/06/20 06:33:31;;;;;;;69.32;51.03;;;21.70;60.80;;;;;;4947667;28;89021;-77
2022/06/20 06:36:20;;;;;;;67.90;50.83;;;21.60;60.80;;;;;;4955255;28;90011;-78
2022/06/20 06:39:28;;;;;;;65.47;50.55;;;21.60;60.70;;;;;;4944399;28;91216;-77
2022/06/20 06:41:57;;;;;;;68.22;50.60;;;21.60;60.70;;;;;;4953174;28;90721;-78
2022/06/20 06:44:42;;;;;;;66.45;50.67;;;21.60;60.80;;;;;;4936695;28;95968;-77
2022/06/20 06:47:31;;;;;;;66.03;50.45;;;21.60;60.70;;;;;;4953749;28;90628;-77
2022/06/20 06:50:01;;;;;;;65.80;50.50;;;21.60;60.80;;;;;;4930516;28;91042;-77
2022/06/20 06:52:36;;;;;;;64.97;50.47;;;21.60;60.90;;;;;;4950167;28;90554;-78
2022/06/20 06:55:40;;;;;;;65.65;50.40;;;21.60;61.10;;;;;;4947765;28;89568;-77
2022/06/20 06:58:23;;;;;;;64.60;50.33;;;21.60;61.00;;;;;;4957537;28;92049;-77
2022/06/20 07:00:59;;;;;;;65.03;50.45;;;21.50;61.10;;;;;;4935238;28;92932;-78
2022/06/20 07:03:56;;;;;;;67.50;50.55;;;21.60;61.20;;;;;;4958013;28;89375;-78
2022/06/20 07:06:41;;;;;;;67.18;50.45;;;21.50;61.20;;;;;;4939959;28;90150;-78
2022/06/20 07:09:32;;;;;;;66.35;50.58;;;21.50;61.30;;;;;;4940536;28;94631;-78
2022/06/20 07:12:11;;;;;;;64.80;50.28;;;21.50;61.40;;;;;;4957235;28;91578;-78
2022/06/20 07:14:56;;;;;;;64.40;50.20;;;21.50;61.40;;;;;;4927034;28;90002;-78
2022/06/20 07:17:35;;;;;;;63.85;50.45;;;21.50;61.50;;;;;;4954938;28;89516;-78
2022/06/20 07:20:01;;;;;;;64.55;50.30;;;21.50;61.50;;;;;;4941421;28;90628;-77
2022/06/20 07:22:27;;;;;;;63.67;50.03;;;21.50;61.60;;;;;;4954308;28;91145;-77
2022/06/20 07:24:54;;;;;;;66.07;50.47;;;21.50;61.70;;;;;;4934366;28;89697;-78
2022/06/20 07:27:28;;;;;;;67.05;50.47;;;21.50;61.60;;;;;;4953880;28;92716;-78
2022/06/20 07:30:17;;;;;;;63.88;50.08;;;21.50;61.50;;;;;;4943357;28;92461;-78
2022/06/20 07:32:48;;;;;;;65.22;50.42;;;21.50;61.40;;;;;;4954317;28;91536;-78
2022/06/20 07:35:28;;;;;;;64.30;50.45;;;21.60;61.40;;;;;;4933019;28;90691;-78
2022/06/20 07:37:59;;;;;;;64.80;50.22;;;21.60;61.30;;;;;;4936977;28;89955;-78
2022/06/20 07:40:38;;;;;;;;;;;21.60;61.20;;;;;;4952179;28;90922;-78
2022/06/20 07:43:08;;;;;;;66.00;50.17;;;21.60;61.30;;;;;;4954360;28;92484;-78
2022/06/20 07:45:40;;;;;;;65.03;50.45;;;21.60;61.30;;;;;;4950337;28;91174;-78
2022/06/20 07:48:25;;;;;;;65.10;50.10;;;21.60;61.60;;;;;;4952321;28;90929;-76
2022/06/20 07:51:05;;;;;;;64.88;50.65;;;21.60;61.60;;;;;;4932077;28;92043;-78
2022/06/20 07:53:38;;;;;;;64.70;50.58;;;21.60;61.40;;;;;;4952672;28;90139;-78
2022/06/20 07:56:23;;;;;;;65.55;50.35;;;21.70;61.50;;;;;;4949287;28;89490;-78
2022/06/20 07:58:54;;;;;;;66.30;50.63;;;21.70;61.30;;;;;;4928718;28;91117;-78
2022/06/20 08:01:23;;;;;;;;;;;21.80;61.10;;;;;;4937567;28;91973;-78
2022/06/20 08:04:09;;;;;;;64.97;50.33;;;21.90;61.70;;;;;;4955056;28;90441;-78
2022/06/20 08:06:46;;;;;;;65.07;50.53;;;21.90;60.70;;;;;;4944021;28;89477;-78
2022/06/20 08:09:22;;;;;;;65.30;50.30;;;21.90;60.60;;;;;;4930011;28;90991;-78
2022/06/20 08:11:57;;;;;;;64.60;50.47;;;21.90;60.60;;;;;;4944208;28;90732;-78
2022/06/20 08:14:43;;;;;;;65.22;50.53;;;22.00;60.50;;;;;;4939586;28;92650;-78
2022/06/20 08:17:10;;;;;;;64.38;50.47;;;22.00;60.10;;;;;;4949107;28;90111;-78
2022/06/20 08:19:39;;;;;;;67.00;50.67;;;22.10;60.10;;;;;;4955496;28;91868;-78
2022/06/20 08:22:22;;;;;;;67.07;50.67;;;22.20;60.00;;;;;;4928511;28;93445;-78
2022/06/20 08:24:53;;;;;;;65.65;50.75;;;22.20;59.90;;;;;;4958114;28;90277;-78
2022/06/20 08:27:39;;;;;;;67.22;50.72;;;22.20;59.90;;;;;;4944488;28;91678;-78
2022/06/20 08:30:14;;;;;;;65.80;50.38;;;22.20;59.90;;;;;;4955282;28;90547;-78
2022/06/20 08:33:16;;;;;;;65.88;50.75;;;22.20;59.80;;;;;;4954928;28;90165;-78
2022/06/20 08:35:57;;;;;;;65.60;50.83;;;22.30;59.60;;;;;;4957810;28;90437;-78
2022/06/20 08:38:34;;;;;;;66.25;50.72;;;22.30;59.30;;;;;;4945885;28;90258;-78
2022/06/20 08:41:28;;;;;;;65.10;50.85;;;22.40;59.10;;;;;;4944085;28;90176;-78
2022/06/20 08:44:32;;;;;;;64.40;50.75;;;22.50;59.10;;;;;;4960139;28;90221;-77
2022/06/20 08:47:35;;;;;;;64.60;50.60;;;22.70;58.60;;;;;;4949236;28;90259;-77
2022/06/20 08:50:28;;;;;;;64.30;50.55;;;22.80;58.20;;;;;;4954903;28;90108;-78
2022/06/20 08:53:31;;;;;;;64.05;50.55;;;22.90;57.90;;;;;;4950945;28;90269;-72
2022/06/20 08:56:15;;;;;;;65.60;50.70;;;23.00;57.80;;;;;;4944881;28;94236;-78
2022/06/20 08:58:50;;;;;;;64.10;50.80;;;23.00;57.40;;;;;;4954402;28;90196;-77
2022/06/20 09:01:26;;;;;;;65.95;50.85;;;23.00;57.30;;;;;;4934938;28;90157;-78
2022/06/20 09:04:13;;;;;;;65.07;50.65;;;23.00;57.40;;;;;;4944878;28;89889;-74
2022/06/20 09:07:09;;;;;;;64.43;50.53;;;23.00;57.30;;;;;;4943597;28;90945;-76
2022/06/20 09:09:44;;;;;;;64.05;50.75;;;23.00;57.40;;;;;;4939406;28;89742;-75
2022/06/20 09:12:38;;;;;;;65.88;50.95;;;23.00;57.30;;;;;;4934810;28;90946;-76
2022/06/20 09:15:22;;;;;;;65.43;50.45;;;23.00;57.40;;;;;;4935771;28;91890;-76
2022/06/20 09:18:06;;;;;;;66.00;50.60;;;23.00;57.40;;;;;;4947499;28;90525;-78
2022/06/20 09:20:50;;;;;;;67.30;50.83;;;23.00;57.40;;;;;;4954151;28;89947;-78
2022/06/20 09:23:37;;;;;;;66.85;50.72;;;23.00;57.50;;;;;;4927590;28;91870;-78
2022/06/20 09:26:30;;;;;;;66.22;50.70;;;23.00;57.60;;;;;;4945398;28;95147;-78
2022/06/20 09:29:24;;;;;;;64.93;50.70;;;23.00;57.50;;;;;;4933696;28;93016;-77
2022/06/20 09:32:05;;;;;;;67.10;50.95;;;23.00;57.60;;;;;;4956626;28;90357;-77
2022/06/20 09:34:42;;;;;;;66.90;50.72;;;23.00;57.70;;;;;;4938311;28;91914;-77
2022/06/20 09:37:20;;;;;;;64.53;50.55;;;23.00;57.70;;;;;;4950677;28;92261;-77
2022/06/20 09:40:22;;;;;;;65.95;50.70;;;23.00;57.80;;;;;;4954105;28;90370;-77
2022/06/20 09:43:09;;;;;;;66.18;51.05;;;23.10;57.80;;;;;;4946906;28;94526;-77
2022/06/20 09:45:43;;;;;;;64.95;50.92;;;23.00;57.80;;;;;;4957177;28;89933;-77
2022/06/20 09:48:16;;;;;;;64.80;50.55;;;23.00;57.80;;;;;;4939418;28;92865;-77
2022/06/20 09:51:04;;;;;;;64.95;50.75;;;23.00;57.80;;;;;;4950951;28;91890;-77
2022/06/20 09:53:40;;;;;;;65.80;50.72;;;23.00;57.90;;;;;;4948846;28;91224;-76
2022/06/20 09:56:24;;;;;;;66.75;50.83;;;23.10;58.00;;;;;;4952455;28;89314;-76
2022/06/20 09:59:06;;;;;;;64.32;50.80;;;23.10;57.90;;;;;;4952685;28;95331;-76
2022/06/20 10:01:41;;;;;;;66.43;51.05;;;23.00;58.00;;;;;;4951557;28;91198;-76
2022/06/20 10:04:22;;;;;;;65.55;50.78;;;23.00;58.00;;;;;;4945227;28;90300;-73
2022/06/20 10:06:55;;;;;;;68.32;51.35;;;23.10;58.10;;;;;;4933511;28;91316;-73
2022/06/20 10:09:33;;;;;;;64.65;50.85;;;23.10;58.80;;;;;;4951978;28;89079;-76
2022/06/20 10:12:29;;;;;;;67.28;51.85;;;23.00;58.20;;;;;;4947325;28;93467;-75
2022/06/20 10:15:26;;;;;;;69.63;52.03;;;23.00;58.40;;;;;;4955627;28;90900;-74
2022/06/20 10:18:24;;;;;;;71.70;52.13;;;23.10;58.50;;;;;;4947667;28;92395;-78
2022/06/20 10:21:08;;;;;;;70.07;51.92;;;23.10;58.70;;;;;;4949195;28;90104;-77
2022/06/20 10:23:46;;;;;;;73.10;52.10;;;23.10;58.90;;;;;;4939211;28;97366;-77
2022/06/20 10:26:49;;;;;;;70.10;51.65;;;23.10;59.10;;;;;;4940084;28;91219;-79
2022/06/20 10:29:40;;;;;;;69.20;52.03;;;23.10;59.70;;;;;;4962286;28;91187;-79
2022/06/20 10:32:41;;;;;;;70.17;51.70;;;23.10;59.10;;;;;;4961916;28;91415;-79
2022/06/20 10:35:15;;;;;;;69.20;51.65;;;23.10;59.10;;;;;;4938529;28;92286;-79
2022/06/20 10:37:54;;;;;;;69.13;51.78;;;23.10;59.10;;;;;;4942307;28;91160;-79
2022/06/20 10:40:52;;;;;;;67.95;52.22;;;23.10;59.20;;;;;;4933602;28;90624;-79
2022/06/20 10:43:47;;;;;;;72.18;51.85;;;23.10;59.10;;;;;;4955680;28;95667;-78
2022/06/20 10:46:31;;;;;;;67.25;51.85;;;23.20;59.10;;;;;;4959735;28;91753;-79
2022/06/20 10:49:15;;;;;;;69.57;52.03;;;23.20;59.00;;;;;;4937617;28;91416;-79
2022/06/20 10:52:01;;;;;;;67.93;51.83;;;23.20;59.00;;;;;;4945196;28;91946;-76
2022/06/20 10:55:04;;;;;;;69.22;51.85;;;23.20;59.00;;;;;;4951276;28;90057;-79
2022/06/20 10:58:11;;;;;;;68.82;51.70;;;23.20;59.00;;;;;;4957591;28;89944;-79
2022/06/20 11:00:42;;;;;;;68.85;51.72;;;23.20;58.90;;;;;;4902175;28;93063;-79
2022/06/20 11:03:48;;;;;;;70.47;52.00;;;23.20;58.70;;;;;;4957722;28;89748;-77
2022/06/20 11:06:45;;;;;;;70.43;51.92;;;23.20;58.80;;;;;;4961274;28;89144;-79
2022/06/20 11:09:28;;;;;;;69.30;52.03;;;23.20;58.80;;;;;;4951769;28;91830;-79
2022/06/20 11:12:19;;;;;;;68.95;51.92;;;23.20;58.70;;;;;;4961247;28;90505;-79
2022/06/20 11:14:59;;;;;;;67.57;52.08;;;23.20;58.70;;;;;;4965544;28;91067;-79
2022/06/20 11:17:50;;;;;;;71.30;51.55;;;23.20;58.60;;;;;;4963177;28;89248;-79
2022/06/20 11:20:20;;;;;;;;;;;23.20;58.60;;;;;;4957217;28;91188;-78
2022/06/20 11:23:05;;;;;;;68.60;52.17;;;23.20;58.60;;;;;;4953679;28;92340;-79
2022/06/20 11:26:08;;;;;;;68.10;51.50;;;23.20;58.50;;;;;;4967444;28;89454;-79
2022/06/20 11:28:45;;;;;;;69.32;51.67;;;23.20;58.30;;;;;;4963175;28;90075;-79
2022/06/20 11:31:38;;;;;;;69.22;51.83;;;23.20;58.30;;;;;;4949239;28;90837;-79
2022/06/20 11:34:22;;;;;;;68.93;51.80;;;23.30;58.40;;;;;;4940771;28;93094;-79
2022/06/20 11:37:11;;;;;;;67.72;51.88;;;23.20;58.40;;;;;;4936918;28;90953;-79
2022/06/20 11:39:55;;;;;;;66.93;51.83;;;23.20;58.30;;;;;;4941548;28;90957;-79
2022/06/20 11:42:48;;;;;;;72.45;51.88;;;23.20;58.20;;;;;;4952565;28;93036;-79
2022/06/20 11:45:24;;;;;;;70.55;51.85;;;23.30;58.30;;;;;;4953878;28;91308;-78
2022/06/20 11:48:13;;;;;;;66.32;51.55;;;23.20;58.30;;;;;;4932367;28;89664;-78
2022/06/20 11:50:58;;;;;;;67.90;51.85;;;23.30;58.30;;;;;;4944456;28;90629;-77
2022/06/20 11:53:52;;;;;;;66.35;51.70;;;23.30;58.20;;;;;;4929476;28;93535;-72
2022/06/20 11:56:31;;;;;;;65.88;51.47;;;23.30;58.30;;;;;;4951632;28;90458;-76
2022/06/20 11:59:23;;;;;;;67.78;51.65;;;23.30;58.30;;;;;;4950425;28;90349;-73
2022/06/20 12:02:29;;;;;;;69.55;51.75;;;23.20;58.30;;;;;;4936670;28;91819;-77
2022/06/20 12:05:21;;;;;;;66.93;51.63;;;23.30;58.90;;;;;;4948127;28;91702;-73
2022/06/20 12:07:56;;;;;;;68.18;51.72;;;23.20;58.20;;;;;;4933978;28;92536;-72
2022/06/20 12:10:43;;;;;;;66.03;51.40;;;23.20;58.20;;;;;;4946289;28;91070;-76
2022/06/20 12:13:36;;;;;;;65.95;51.40;;;23.20;58.20;;;;;;4928050;28;96047;-75
2022/06/20 12:16:17;;;;;;;65.55;51.45;;;23.30;58.10;;;;;;4959972;28;89878;-76
2022/06/20 12:24:45;;;;;;;67.78;51.72;;;23.30;58.20;;;;;;4947112;28;91031;-76
2022/06/20 12:27:14;;;;;;;68.13;51.78;;;23.30;58.20;;;;;;4938359;28;92787;-76
2022/06/20 12:29:40;;;;;;;67.32;51.92;;;23.30;58.20;;;;;;4955197;28;89300;-75
2022/06/20 12:32:24;;;;;;;67.10;51.75;;;23.30;58.20;;;;;;4960917;28;89574;-76
2022/06/20 12:34:59;;;;;;;65.75;51.75;;;23.30;58.10;;;;;;4955436;28;89500;-76
2022/06/20 12:37:32;;;;;;;68.80;51.60;;;23.30;58.20;;;;;;4936566;28;92681;-76
2022/06/20 12:40:20;;;;;;;66.00;51.55;;;23.30;58.20;;;;;;4952091;28;90918;-76
2022/06/20 12:43:00;;;;;;;68.25;51.72;;;23.30;58.20;;;;;;4953761;28;90532;-76
2022/06/20 12:45:54;;;;;;;66.13;51.67;;;23.40;58.20;;;;;;4951229;28;90366;-76
2022/06/20 12:48:38;;;;;;;65.88;51.35;;;23.30;58.20;;;;;;4956317;28;89500;-76
2022/06/20 12:51:16;;;;;;;67.10;51.50;;;23.30;58.10;;;;;;4946487;28;90765;-77
2022/06/20 12:53:54;;;;;;;67.38;51.55;;;23.30;58.10;;;;;;4953394;28;90259;-76
2022/06/20 12:56:24;;;;;;;65.90;51.53;;;23.40;58.20;;;;;;4952827;28;88821;-76
2022/06/20 12:59:09;;;;;;;67.07;51.45;;;23.30;58.00;;;;;;4961143;28;94616;-76
2022/06/20 13:01:49;;;;;;;70.20;51.45;;;23.40;58.10;;;;;;4952794;28;90245;-74
2022/06/20 13:04:29;;;;;;;67.72;51.42;;;23.40;58.10;;;;;;4955621;28;90831;-74
2022/06/20 13:07:20;;;;;;;68.30;51.58;;;23.30;58.00;;;;;;4955331;28;90169;-74
2022/06/20 13:10:11;;;;;;;66.47;51.47;;;23.40;58.00;;;;;;4949820;28;91068;-74
2022/06/20 13:12:52;;;;;;;66.97;51.33;;;23.30;58.20;;;;;;4943127;28;90068;-75
2022/06/20 13:15:23;;;;;;;66.40;51.60;;;23.40;58.30;;;;;;4950192;28;89570;-76
2022/06/20 13:17:54;;;;;;;67.70;51.97;;;23.30;58.30;;;;;;4952194;28;89577;-74
2022/06/20 13:20:20;;;;;;;;;;;23.30;58.40;;;;;;4949746;28;90017;-76
2022/06/20 13:22:55;;;;;;;68.13;51.75;;;23.30;58.50;;;;;;4954169;28;91514;-76
2022/06/20 13:25:49;;;;;;;69.57;52.30;;;23.30;58.50;;;;;;4959706;28;90010;-76
2022/06/20 13:28:27;;;;;;;69.07;51.55;;;23.30;59.10;;;;;;4962341;28;89944;-76
2022/06/20 13:31:15;;;;;;;69.75;52.05;;;23.40;58.60;;;;;;4925498;28;93323;-76
2022/06/20 13:33:53;;;;;;;72.70;52.08;;;23.40;58.50;;;;;;4961695;28;90912;-76
2022/06/20 13:36:29;;;;;;;71.32;52.08;;;23.40;58.50;;;;;;4940359;28;89657;-76
2022/06/20 13:39:07;;;;;;;66.82;51.75;;;23.40;58.50;;;;;;4954132;28;89802;-72
2022/06/20 13:41:49;;;;;;;65.53;51.35;;;23.40;58.40;;;;;;4938765;28;92348;-71